Main page
METAR-TAF:

METAR-TAF

Airports :

Leuchars Station

Leuchars, Scotland

latitude: 56-23N, longitude: 002-52W, elevation: 12 m

Current weather observation

The report was made 41 minutes ago, at 21:50 UTC
Wind 10 kt from the North/Northwest
Temperature 6°C
Humidity 70%
Pressure 1000 hPa
Visibility 10 km or more
Few clouds at a height of 3000 ft
Scattered clouds at a height of 11000 ft

METAR: EGQL 042150Z 34010KT 9999 FEW030 SCT110 06/01 Q1000 RMK BLU

Time: 22:31 (22:31 UTC)

Forecast

The report was made 3 hours and 8 minutes ago, at 19:23 UTC
Forecast valid from 04 at 21 UTC to 05 at 06 UTC
Wind 12 kt from the North/Northwest
Visibility 10 km or more
Scattered clouds at a height of 3000 ft

TAF: EGQL 041923Z 0421/0506 33012KT 9999 SCT030

Weather observations and forecasts of more than 4000 airports (METAR and TAF reports).

The available stations are represented by yellow and red dots on the map.

Hover mouse over dot to see the name of the station.

Then click to see weather observations and forecasts.

To change the map : click on the green buttons with a black cross to zoom in, on the green button with a dash to zoom out, or on the green arrows for adjacent maps.


METAR-TAF: